createdAt,value
2022-09-28T00:01:24.993Z,95626.97
2022-09-28T00:11:30.644Z,95609.88
2022-09-28T00:21:35.396Z,95608.72
2022-09-28T00:31:37.692Z,95601.50
2022-09-28T00:41:40.485Z,95603.78
2022-09-28T00:51:44.740Z,95601.13
2022-09-28T01:01:47.280Z,95594.34
2022-09-28T01:11:49.581Z,95585.84
2022-09-28T01:22:10.092Z,95580.47
2022-09-28T01:32:42.021Z,95573.00
2022-09-28T01:42:47.048Z,95558.94
2022-09-28T01:52:59.760Z,95557.19
2022-09-28T02:03:26.057Z,95551.78
2022-09-28T02:13:36.846Z,95538.00
2022-09-28T02:23:42.914Z,95530.63
2022-09-28T02:33:46.669Z,95536.31
2022-09-28T02:44:24.266Z,95539.19
2022-09-28T02:54:44.835Z,95533.94
2022-09-28T03:05:14.828Z,95527.66
2022-09-28T03:15:20.101Z,95522.00
2022-09-28T03:25:22.378Z,95525.91
2022-09-28T03:35:24.651Z,95517.41
2022-09-28T03:45:27.230Z,95519.22
2022-09-28T03:55:29.550Z,95509.50
2022-09-28T04:05:31.817Z,95507.50
2022-09-28T04:15:34.102Z,95497.09
2022-09-28T04:25:36.338Z,95487.72
2022-09-28T04:35:38.654Z,95479.91
2022-09-28T04:45:40.957Z,95468.94
2022-09-28T04:55:43.386Z,95478.66
2022-09-28T05:05:46.307Z,95483.75
2022-09-28T05:15:58.083Z,95494.56
2022-09-28T05:26:03.022Z,95484.66
2022-09-28T05:36:05.482Z,95489.13
2022-09-28T05:46:08.366Z,95479.38
2022-09-28T05:56:10.841Z,95450.22
2022-09-28T06:06:13.167Z,95442.72
2022-09-28T06:16:16.825Z,95442.56
2022-09-28T06:26:19.228Z,95445.09
2022-09-28T06:36:22.385Z,95423.31
2022-09-28T06:46:25.719Z,95425.66
2022-09-28T06:56:32.745Z,95405.59
2022-09-28T07:06:35.397Z,95415.97
2022-09-28T07:17:05.630Z,95396.03
2022-09-28T07:27:04.679Z,95365.00
2022-09-28T07:37:11.685Z,95370.88
2022-09-28T07:47:14.265Z,95359.81
2022-09-28T07:57:16.584Z,95370.25
2022-09-28T08:07:22.908Z,95361.50
2022-09-28T08:17:26.252Z,95373.50
2022-09-28T08:27:28.703Z,95358.25
2022-09-28T08:37:30.980Z,95361.44
2022-09-28T08:48:20.741Z,95366.72
2022-09-28T08:58:36.261Z,95359.22
2022-09-28T09:08:44.191Z,95350.28
2022-09-28T09:19:12.324Z,95353.03
2022-09-28T09:29:37.730Z,95350.72
2022-09-28T09:40:01.333Z,95373.91
2022-09-28T09:50:30.785Z,95352.56
2022-09-28T10:00:34.221Z,95358.16
2022-09-28T10:10:54.370Z,95363.53
2022-09-28T10:20:56.724Z,95367.00
2022-09-28T10:30:59.199Z,95358.50
2022-09-28T10:41:10.628Z,95350.38
2022-09-28T10:51:12.877Z,95369.75
2022-09-28T11:01:18.882Z,95344.16
2022-09-28T11:11:21.439Z,95327.16
2022-09-28T11:21:43.058Z,95298.25
2022-09-28T11:31:46.842Z,95288.63
2022-09-28T11:42:16.081Z,95299.53
2022-09-28T11:52:25.540Z,95279.16
2022-09-28T12:02:36.587Z,95287.47
2022-09-28T12:12:49.718Z,95276.88
2022-09-28T12:23:00.498Z,95283.03
2022-09-28T12:33:09.367Z,95282.97
2022-09-28T12:43:25.394Z,95259.19
2022-09-28T12:53:49.047Z,95261.94
2022-09-28T13:04:12.777Z,95255.75
2022-09-28T13:14:46.626Z,95268.25
2022-09-28T13:24:50.683Z,95258.63
2022-09-28T13:34:54.960Z,95267.00
2022-09-28T13:45:16.137Z,95260.00
2022-09-28T13:55:25.145Z,95275.09
2022-09-28T14:05:30.418Z,95261.66
2022-09-28T14:15:35.439Z,95293.91
2022-09-28T14:25:58.998Z,95292.50
2022-09-28T14:36:05.473Z,95301.59
2022-09-28T14:46:22.946Z,95285.16
2022-09-28T14:56:32.483Z,95299.88
2022-09-28T15:06:46.615Z,95314.13
2022-09-28T15:16:48.967Z,95333.41
2022-09-28T15:26:51.300Z,95344.28
2022-09-28T15:36:56.546Z,95358.38
2022-09-28T15:47:16.965Z,95375.56
2022-09-28T15:57:40.516Z,95400.53
2022-09-28T16:07:56.145Z,95409.50
2022-09-28T16:18:02.809Z,95429.53
2022-09-28T16:28:07.060Z,95446.16
2022-09-28T16:38:16.666Z,95451.94
2022-09-28T16:48:26.657Z,95469.75
2022-09-28T16:58:31.390Z,95492.66
2022-09-28T17:08:35.782Z,95511.66
2022-09-28T17:18:39.870Z,95524.22
2022-09-28T17:28:42.214Z,95528.19
2022-09-28T17:38:45.605Z,95537.56
2022-09-28T17:48:47.983Z,95541.22
2022-09-28T17:58:50.560Z,95563.31
2022-09-28T18:08:52.827Z,95572.28
2022-09-28T18:18:55.259Z,95577.34
2022-09-28T18:28:57.559Z,95579.81
2022-09-28T18:39:01.135Z,95583.19
2022-09-28T18:49:04.785Z,95580.94
2022-09-28T18:59:11.917Z,95599.75
2022-09-28T19:09:15.017Z,95617.72
2022-09-28T19:19:18.925Z,95607.88
2022-09-28T19:29:21.935Z,95622.94
2022-09-28T19:39:24.285Z,95625.88
2022-09-28T19:49:28.337Z,95650.38
2022-09-28T19:59:30.636Z,95645.09
2022-09-28T20:09:33.197Z,95652.53
2022-09-28T20:19:36.267Z,95672.94
2022-09-28T20:29:38.566Z,95683.56
2022-09-28T20:40:11.568Z,95693.84
2022-09-28T20:50:13.946Z,95701.94
2022-09-28T21:00:16.350Z,95718.19
2022-09-28T21:10:18.623Z,95731.09
2022-09-28T21:20:20.861Z,95739.97
2022-09-28T21:30:23.325Z,95740.53
2022-09-28T21:50:27.969Z,95758.13
2022-09-28T22:10:14.741Z,95775.13
2022-09-28T22:20:17.235Z,95770.88
2022-09-28T22:30:19.494Z,95772.78
2022-09-28T22:40:21.794Z,95781.75
2022-09-28T22:50:24.131Z,95791.31
2022-09-28T23:00:26.546Z,95799.94
2022-09-28T23:10:29.374Z,95794.91
2022-09-28T23:20:32.903Z,95782.44
2022-09-28T23:30:35.148Z,95775.97
2022-09-28T23:40:37.522Z,95782.78
2022-09-28T23:50:39.826Z,95795.09
